createdAt,value
2023-01-26T00:07:13.776Z,1.88
2023-01-26T00:17:26.374Z,1.86
2023-01-26T00:27:32.531Z,1.92
2023-01-26T00:37:37.496Z,1.79
2023-01-26T00:47:41.241Z,1.81
2023-01-26T00:57:45.045Z,1.84
2023-01-26T01:07:49.189Z,1.87
2023-01-26T01:17:52.975Z,1.95
2023-01-26T01:27:56.764Z,1.74
2023-01-26T01:38:00.902Z,1.49
2023-01-26T01:48:07.380Z,1.13
2023-01-26T01:58:15.144Z,1.04
2023-01-26T02:08:21.772Z,1.42
2023-01-26T02:18:31.944Z,1.53
2023-01-26T02:28:43.179Z,1.65
2023-01-26T02:39:33.327Z,1.49
2023-01-26T02:50:09.782Z,1.63
2023-01-26T03:01:37.719Z,1.52
2023-01-26T03:14:02.383Z,1.30
2023-01-26T03:26:15.513Z,1.27
2023-01-26T03:36:46.867Z,1.43
2023-01-26T03:47:15.029Z,1.51
2023-01-26T03:57:20.946Z,1.43
2023-01-26T04:07:45.915Z,1.48
2023-01-26T04:19:30.252Z,1.35
2023-01-26T04:31:54.935Z,1.17
2023-01-26T04:44:19.354Z,1.24
2023-01-26T04:56:43.797Z,1.40
2023-01-26T05:08:26.463Z,1.37
2023-01-26T05:20:50.925Z,1.36
2023-01-26T05:33:18.139Z,1.32
2023-01-26T05:45:42.021Z,1.15
2023-01-26T05:55:49.537Z,1.30
2023-01-26T06:05:58.229Z,1.40
2023-01-26T06:16:26.201Z,1.42
2023-01-26T06:26:30.260Z,1.33
2023-01-26T06:36:35.600Z,1.61
2023-01-26T06:47:03.561Z,1.79
2023-01-26T06:57:09.208Z,1.90
2023-01-26T07:07:40.621Z,2.00
2023-01-26T07:17:47.487Z,1.89
2023-01-26T07:27:59.508Z,2.07
2023-01-26T07:38:10.444Z,2.28
2023-01-26T07:48:17.087Z,2.23
2023-01-26T07:58:23.993Z,2.39
2023-01-26T08:08:30.549Z,2.46
2023-01-26T08:18:54.598Z,2.33
2023-01-26T08:28:58.736Z,2.62
2023-01-26T08:39:05.410Z,2.75
2023-01-26T08:49:19.927Z,2.75
2023-01-26T09:00:30.453Z,3.19
2023-01-26T09:12:19.200Z,3.60
2023-01-26T09:23:28.568Z,3.78
2023-01-26T09:35:01.250Z,3.95
2023-01-26T09:47:20.630Z,3.85
2023-01-26T09:59:45.340Z,3.83
2023-01-26T10:12:29.966Z,3.82
2023-01-26T10:24:37.121Z,3.90
2023-01-26T10:37:01.305Z,4.02
2023-01-26T10:48:52.916Z,4.01
2023-01-26T10:59:05.838Z,4.43
2023-01-26T11:09:14.548Z,4.28
2023-01-26T11:19:43.851Z,3.91
2023-01-26T11:30:22.436Z,3.90
2023-01-26T11:41:44.521Z,4.00
2023-01-26T11:52:37.756Z,4.00
2023-01-26T12:03:00.398Z,4.19
2023-01-26T12:15:05.636Z,4.01
2023-01-26T12:25:25.205Z,3.91
2023-01-26T12:35:58.342Z,4.06
2023-01-26T12:46:05.813Z,4.11
2023-01-26T12:56:18.671Z,4.15
2023-01-26T13:06:27.487Z,4.13
2023-01-26T13:16:35.507Z,4.26
2023-01-26T13:26:46.498Z,4.40
2023-01-26T13:37:29.337Z,4.45
2023-01-26T13:47:46.336Z,4.29
2023-01-26T13:58:10.387Z,3.98
2023-01-26T14:08:16.387Z,4.12
2023-01-26T14:18:23.031Z,4.30
2023-01-26T14:28:49.519Z,4.37
2023-01-26T14:50:40.104Z,4.40
2023-01-26T15:00:49.884Z,4.41
2023-01-26T15:12:04.398Z,4.40
2023-01-26T15:48:40.155Z,4.37
2023-01-26T15:58:44.039Z,4.28
2023-01-26T16:08:47.815Z,3.87
2023-01-26T16:18:51.400Z,3.69
2023-01-26T16:28:55.618Z,3.45
2023-01-26T16:38:59.352Z,3.34
2023-01-26T16:49:03.024Z,2.78
2023-01-26T16:59:40.976Z,2.67
2023-01-26T17:10:16.341Z,2.83
2023-01-26T17:20:20.288Z,3.04
2023-01-26T17:30:23.997Z,3.39
2023-01-26T17:40:28.993Z,3.68
2023-01-26T17:50:34.630Z,3.82
2023-01-26T18:00:39.388Z,3.83
2023-01-26T18:10:42.957Z,3.96
2023-01-26T18:20:48.455Z,4.12
2023-01-26T18:30:52.149Z,4.09
2023-01-26T18:40:55.777Z,4.25
2023-01-26T18:50:59.674Z,4.13
2023-01-26T19:01:11.670Z,4.12
2023-01-26T19:11:15.555Z,3.72
2023-01-26T19:21:24.723Z,3.66
2023-01-26T19:31:29.452Z,4.06
2023-01-26T19:42:11.151Z,4.27
2023-01-26T19:52:18.454Z,4.38
2023-01-26T20:02:22.877Z,4.50
2023-01-26T20:12:26.656Z,4.43
2023-01-26T20:22:35.318Z,4.11
2023-01-26T20:32:40.623Z,4.18
2023-01-26T20:42:46.220Z,3.83
2023-01-26T20:52:50.706Z,3.64
2023-01-26T21:02:54.443Z,3.55
2023-01-26T21:12:58.403Z,3.43
2023-01-26T21:23:04.885Z,3.43
2023-01-26T21:33:08.646Z,3.19
2023-01-26T21:43:12.244Z,2.99
2023-01-26T21:53:15.754Z,2.36
2023-01-26T22:03:19.473Z,1.98
2023-01-26T22:13:23.910Z,1.93
2023-01-26T22:23:34.482Z,2.35
2023-01-26T22:33:42.083Z,2.75
2023-01-26T22:43:50.000Z,2.43
2023-01-26T22:53:54.697Z,1.96
2023-01-26T23:04:00.365Z,2.09
2023-01-26T23:14:05.782Z,2.60
2023-01-26T23:24:09.451Z,2.54
2023-01-26T23:34:13.085Z,2.40
2023-01-26T23:44:18.516Z,2.49
2023-01-26T23:54:22.014Z,2.50
